sensor_id;sensor_type;location;lat;lon;timestamp;P1;durP1;ratioP1;P2;durP2;ratioP2
47713;SDS011;33475;46.614;13.888;2022-12-29T00:01:18;180.27;;;15.00;;
47713;SDS011;33475;46.614;13.888;2022-12-29T00:03:48;108.25;;;13.23;;
47713;SDS011;33475;46.614;13.888;2022-12-29T00:06:14;41.60;;;10.73;;
47713;SDS011;33475;46.614;13.888;2022-12-29T00:08:40;44.22;;;10.63;;
47713;SDS011;33475;46.614;13.888;2022-12-29T00:11:11;15.75;;;9.32;;
47713;SDS011;33475;46.614;13.888;2022-12-29T00:13:37;38.20;;;9.90;;
47713;SDS011;33475;46.614;13.888;2022-12-29T00:16:22;23.45;;;9.68;;
47713;SDS011;33475;46.614;13.888;2022-12-29T00:18:48;37.35;;;11.35;;
47713;SDS011;33475;46.614;13.888;2022-12-29T00:21:15;16.60;;;9.05;;
47713;SDS011;33475;46.614;13.888;2022-12-29T00:24:00;36.30;;;8.55;;
47713;SDS011;33475;46.614;13.888;2022-12-29T00:26:45;7.10;;;5.57;;
47713;SDS011;33475;46.614;13.888;2022-12-29T00:29:31;7.22;;;6.50;;
47713;SDS011;33475;46.614;13.888;2022-12-29T00:32:16;7.70;;;6.78;;
47713;SDS011;33475;46.614;13.888;2022-12-29T00:35:01;9.95;;;6.68;;
47713;SDS011;33475;46.614;13.888;2022-12-29T00:37:33;16.73;;;7.28;;
47713;SDS011;33475;46.614;13.888;2022-12-29T00:40:17;10.88;;;8.35;;
47713;SDS011;33475;46.614;13.888;2022-12-29T00:43:02;13.10;;;8.00;;
47713;SDS011;33475;46.614;13.888;2022-12-29T00:45:47;9.40;;;6.75;;
47713;SDS011;33475;46.614;13.888;2022-12-29T00:48:13;8.77;;;7.20;;
47713;SDS011;33475;46.614;13.888;2022-12-29T00:50:39;7.70;;;6.28;;
47713;SDS011;33475;46.614;13.888;2022-12-29T00:53:05;6.38;;;5.65;;
47713;SDS011;33475;46.614;13.888;2022-12-29T00:55:31;8.82;;;5.93;;
47713;SDS011;33475;46.614;13.888;2022-12-29T00:58:02;6.60;;;5.82;;
47713;SDS011;33475;46.614;13.888;2022-12-29T01:00:28;6.80;;;5.72;;
47713;SDS011;33475;46.614;13.888;2022-12-29T01:02:54;5.13;;;4.55;;
47713;SDS011;33475;46.614;13.888;2022-12-29T01:05:20;5.47;;;4.60;;
47713;SDS011;33475;46.614;13.888;2022-12-29T01:07:46;5.32;;;4.82;;
47713;SDS011;33475;46.614;13.888;2022-12-29T01:10:12;9.90;;;6.88;;
47713;SDS011;33475;46.614;13.888;2022-12-29T01:12:40;5.55;;;4.50;;
47713;SDS011;33475;46.614;13.888;2022-12-29T01:15:07;5.78;;;4.85;;
47713;SDS011;33475;46.614;13.888;2022-12-29T01:17:33;4.45;;;3.80;;
47713;SDS011;33475;46.614;13.888;2022-12-29T01:20:00;7.50;;;4.22;;
47713;SDS011;33475;46.614;13.888;2022-12-29T01:22:27;6.05;;;3.78;;
47713;SDS011;33475;46.614;13.888;2022-12-29T01:24:53;5.30;;;4.35;;
47713;SDS011;33475;46.614;13.888;2022-12-29T01:27:19;5.68;;;4.80;;
47713;SDS011;33475;46.614;13.888;2022-12-29T01:29:45;7.13;;;5.70;;
47713;SDS011;33475;46.614;13.888;2022-12-29T01:32:11;7.38;;;5.32;;
47713;SDS011;33475;46.614;13.888;2022-12-29T01:34:37;6.53;;;4.82;;
47713;SDS011;33475;46.614;13.888;2022-12-29T01:37:03;4.50;;;4.10;;
47713;SDS011;33475;46.614;13.888;2022-12-29T01:39:29;4.90;;;3.95;;
47713;SDS011;33475;46.614;13.888;2022-12-29T01:41:55;4.95;;;3.53;;
47713;SDS011;33475;46.614;13.888;2022-12-29T01:47:07;6.97;;;4.93;;
47713;SDS011;33475;46.614;13.888;2022-12-29T01:49:33;7.35;;;5.50;;
47713;SDS011;33475;46.614;13.888;2022-12-29T01:52:02;27.63;;;10.20;;
47713;SDS011;33475;46.614;13.888;2022-12-29T01:57:03;16.60;;;7.95;;
47713;SDS011;33475;46.614;13.888;2022-12-29T01:59:31;22.27;;;9.15;;
47713;SDS011;33475;46.614;13.888;2022-12-29T02:01:58;16.45;;;7.30;;
47713;SDS011;33475;46.614;13.888;2022-12-29T02:04:25;17.30;;;7.72;;
47713;SDS011;33475;46.614;13.888;2022-12-29T02:06:53;16.98;;;7.75;;
47713;SDS011;33475;46.614;13.888;2022-12-29T02:09:21;18.48;;;9.25;;
47713;SDS011;33475;46.614;13.888;2022-12-29T02:11:48;28.80;;;10.40;;
47713;SDS011;33475;46.614;13.888;2022-12-29T02:14:14;9.43;;;5.75;;
47713;SDS011;33475;46.614;13.888;2022-12-29T02:42:03;5.90;;;3.50;;
47713;SDS011;33475;46.614;13.888;2022-12-29T02:47:05;5.47;;;3.85;;
47713;SDS011;33475;46.614;13.888;2022-12-29T02:49:39;7.10;;;3.90;;
47713;SDS011;33475;46.614;13.888;2022-12-29T02:52:11;6.38;;;4.35;;
47713;SDS011;33475;46.614;13.888;2022-12-29T02:54:40;5.72;;;4.00;;
47713;SDS011;33475;46.614;13.888;2022-12-29T02:57:10;5.72;;;4.07;;
47713;SDS011;33475;46.614;13.888;2022-12-29T02:59:37;7.70;;;4.70;;
47713;SDS011;33475;46.614;13.888;2022-12-29T03:07:28;9.52;;;4.90;;
47713;SDS011;33475;46.614;13.888;2022-12-29T03:09:58;6.95;;;4.53;;
47713;SDS011;33475;46.614;13.888;2022-12-29T03:12:31;6.35;;;5.38;;
47713;SDS011;33475;46.614;13.888;2022-12-29T03:15:21;12.63;;;5.53;;
47713;SDS011;33475;46.614;13.888;2022-12-29T03:18:10;12.60;;;6.10;;
47713;SDS011;33475;46.614;13.888;2022-12-29T03:20:41;7.40;;;5.10;;
47713;SDS011;33475;46.614;13.888;2022-12-29T03:23:10;12.68;;;5.25;;
47713;SDS011;33475;46.614;13.888;2022-12-29T03:25:38;8.35;;;5.82;;
47713;SDS011;33475;46.614;13.888;2022-12-29T03:28:10;12.18;;;6.47;;
47713;SDS011;33475;46.614;13.888;2022-12-29T03:30:37;8.45;;;6.60;;
47713;SDS011;33475;46.614;13.888;2022-12-29T03:33:05;9.25;;;6.70;;
47713;SDS011;33475;46.614;13.888;2022-12-29T03:35:34;7.55;;;6.55;;
47713;SDS011;33475;46.614;13.888;2022-12-29T03:40:33;11.43;;;6.07;;
47713;SDS011;33475;46.614;13.888;2022-12-29T03:42:59;7.32;;;6.10;;
47713;SDS011;33475;46.614;13.888;2022-12-29T03:45:25;8.40;;;6.15;;
47713;SDS011;33475;46.614;13.888;2022-12-29T03:47:52;11.13;;;6.03;;
47713;SDS011;33475;46.614;13.888;2022-12-29T03:50:19;7.00;;;5.53;;
47713;SDS011;33475;46.614;13.888;2022-12-29T03:52:45;7.63;;;5.55;;
47713;SDS011;33475;46.614;13.888;2022-12-29T03:55:11;7.78;;;6.97;;
47713;SDS011;33475;46.614;13.888;2022-12-29T03:57:37;10.50;;;7.05;;
47713;SDS011;33475;46.614;13.888;2022-12-29T04:00:04;11.20;;;7.35;;
47713;SDS011;33475;46.614;13.888;2022-12-29T04:02:30;11.90;;;6.40;;
47713;SDS011;33475;46.614;13.888;2022-12-29T04:04:56;9.48;;;6.57;;
47713;SDS011;33475;46.614;13.888;2022-12-29T04:07:23;6.68;;;5.78;;
47713;SDS011;33475;46.614;13.888;2022-12-29T04:09:49;12.45;;;5.95;;
47713;SDS011;33475;46.614;13.888;2022-12-29T04:12:16;7.30;;;5.82;;
47713;SDS011;33475;46.614;13.888;2022-12-29T04:14:42;8.15;;;5.60;;
47713;SDS011;33475;46.614;13.888;2022-12-29T04:17:08;16.05;;;6.88;;
47713;SDS011;33475;46.614;13.888;2022-12-29T04:19:34;10.98;;;6.10;;
47713;SDS011;33475;46.614;13.888;2022-12-29T04:22:00;9.65;;;6.60;;
47713;SDS011;33475;46.614;13.888;2022-12-29T04:24:26;12.18;;;6.28;;
47713;SDS011;33475;46.614;13.888;2022-12-29T04:26:52;14.48;;;6.75;;
47713;SDS011;33475;46.614;13.888;2022-12-29T04:29:19;8.20;;;5.68;;
47713;SDS011;33475;46.614;13.888;2022-12-29T04:31:45;9.93;;;6.50;;
47713;SDS011;33475;46.614;13.888;2022-12-29T04:34:11;14.90;;;6.22;;
47713;SDS011;33475;46.614;13.888;2022-12-29T04:36:37;8.90;;;5.72;;
47713;SDS011;33475;46.614;13.888;2022-12-29T04:39:06;9.45;;;5.50;;
47713;SDS011;33475;46.614;13.888;2022-12-29T04:41:33;11.60;;;6.75;;
47713;SDS011;33475;46.614;13.888;2022-12-29T04:43:59;7.60;;;5.53;;
47713;SDS011;33475;46.614;13.888;2022-12-29T04:46:25;8.80;;;5.97;;
47713;SDS011;33475;46.614;13.888;2022-12-29T04:48:51;10.60;;;5.18;;
47713;SDS011;33475;46.614;13.888;2022-12-29T04:51:17;10.77;;;5.75;;
47713;SDS011;33475;46.614;13.888;2022-12-29T04:53:43;7.43;;;5.38;;
47713;SDS011;33475;46.614;13.888;2022-12-29T04:56:09;9.80;;;5.40;;
47713;SDS011;33475;46.614;13.888;2022-12-29T04:58:36;9.88;;;5.72;;
47713;SDS011;33475;46.614;13.888;2022-12-29T05:01:02;8.27;;;6.22;;
47713;SDS011;33475;46.614;13.888;2022-12-29T05:03:28;9.45;;;6.60;;
47713;SDS011;33475;46.614;13.888;2022-12-29T05:05:54;7.32;;;5.82;;
47713;SDS011;33475;46.614;13.888;2022-12-29T05:08:21;9.18;;;6.13;;
47713;SDS011;33475;46.614;13.888;2022-12-29T05:10:49;12.70;;;5.60;;
47713;SDS011;33475;46.614;13.888;2022-12-29T05:13:15;9.15;;;5.72;;
47713;SDS011;33475;46.614;13.888;2022-12-29T05:15:45;8.88;;;6.80;;
47713;SDS011;33475;46.614;13.888;2022-12-29T05:18:13;10.27;;;5.57;;
47713;SDS011;33475;46.614;13.888;2022-12-29T05:20:39;8.27;;;6.13;;
47713;SDS011;33475;46.614;13.888;2022-12-29T05:23:05;8.07;;;6.70;;
47713;SDS011;33475;46.614;13.888;2022-12-29T05:25:32;14.30;;;7.03;;
47713;SDS011;33475;46.614;13.888;2022-12-29T05:27:58;7.85;;;6.03;;
47713;SDS011;33475;46.614;13.888;2022-12-29T05:30:24;12.48;;;7.57;;
47713;SDS011;33475;46.614;13.888;2022-12-29T05:32:50;8.60;;;6.28;;
47713;SDS011;33475;46.614;13.888;2022-12-29T05:35:16;11.73;;;7.13;;
47713;SDS011;33475;46.614;13.888;2022-12-29T05:37:42;15.02;;;7.47;;
47713;SDS011;33475;46.614;13.888;2022-12-29T05:40:08;13.02;;;8.00;;
47713;SDS011;33475;46.614;13.888;2022-12-29T05:42:35;13.05;;;7.28;;
47713;SDS011;33475;46.614;13.888;2022-12-29T05:45:01;13.80;;;8.60;;
47713;SDS011;33475;46.614;13.888;2022-12-29T05:47:27;11.95;;;8.60;;
47713;SDS011;33475;46.614;13.888;2022-12-29T05:49:53;29.45;;;15.25;;
47713;SDS011;33475;46.614;13.888;2022-12-29T05:52:19;19.35;;;10.95;;
47713;SDS011;33475;46.614;13.888;2022-12-29T05:54:45;26.00;;;10.88;;
47713;SDS011;33475;46.614;13.888;2022-12-29T05:57:11;9.82;;;6.97;;
47713;SDS011;33475;46.614;13.888;2022-12-29T05:59:38;11.88;;;9.15;;
47713;SDS011;33475;46.614;13.888;2022-12-29T06:02:04;17.85;;;8.70;;
47713;SDS011;33475;46.614;13.888;2022-12-29T06:04:30;13.45;;;8.18;;
47713;SDS011;33475;46.614;13.888;2022-12-29T06:06:56;11.15;;;7.07;;
47713;SDS011;33475;46.614;13.888;2022-12-29T06:09:22;9.88;;;8.13;;
47713;SDS011;33475;46.614;13.888;2022-12-29T06:11:48;12.38;;;8.15;;
47713;SDS011;33475;46.614;13.888;2022-12-29T06:14:14;10.13;;;7.07;;
47713;SDS011;33475;46.614;13.888;2022-12-29T06:16:40;11.52;;;8.02;;
47713;SDS011;33475;46.614;13.888;2022-12-29T06:19:07;13.20;;;8.40;;
47713;SDS011;33475;46.614;13.888;2022-12-29T06:21:33;10.07;;;8.00;;
47713;SDS011;33475;46.614;13.888;2022-12-29T06:23:59;11.25;;;7.68;;
47713;SDS011;33475;46.614;13.888;2022-12-29T06:26:25;7.90;;;6.75;;
47713;SDS011;33475;46.614;13.888;2022-12-29T06:28:51;8.82;;;6.47;;
47713;SDS011;33475;46.614;13.888;2022-12-29T06:31:17;11.07;;;7.45;;
47713;SDS011;33475;46.614;13.888;2022-12-29T06:33:43;8.80;;;6.63;;
47713;SDS011;33475;46.614;13.888;2022-12-29T06:36:10;9.20;;;6.97;;
47713;SDS011;33475;46.614;13.888;2022-12-29T06:38:36;7.78;;;6.03;;
47713;SDS011;33475;46.614;13.888;2022-12-29T06:41:02;9.27;;;6.13;;
47713;SDS011;33475;46.614;13.888;2022-12-29T06:43:28;18.65;;;13.00;;
47713;SDS011;33475;46.614;13.888;2022-12-29T06:45:55;8.55;;;7.65;;
47713;SDS011;33475;46.614;13.888;2022-12-29T06:48:21;14.38;;;9.60;;
47713;SDS011;33475;46.614;13.888;2022-12-29T06:50:47;18.35;;;10.38;;
47713;SDS011;33475;46.614;13.888;2022-12-29T06:53:14;9.95;;;8.70;;
47713;SDS011;33475;46.614;13.888;2022-12-29T06:55:41;14.15;;;10.13;;
47713;SDS011;33475;46.614;13.888;2022-12-29T06:58:07;20.55;;;11.82;;
47713;SDS011;33475;46.614;13.888;2022-12-29T07:00:33;12.27;;;7.18;;
47713;SDS011;33475;46.614;13.888;2022-12-29T07:03:00;10.13;;;8.27;;
47713;SDS011;33475;46.614;13.888;2022-12-29T07:05:26;15.10;;;10.95;;
47713;SDS011;33475;46.614;13.888;2022-12-29T07:07:53;17.67;;;12.30;;
47713;SDS011;33475;46.614;13.888;2022-12-29T07:10:19;11.00;;;8.80;;
47713;SDS011;33475;46.614;13.888;2022-12-29T07:12:45;14.73;;;9.85;;
47713;SDS011;33475;46.614;13.888;2022-12-29T07:15:11;20.60;;;10.32;;
47713;SDS011;33475;46.614;13.888;2022-12-29T07:17:37;31.83;;;17.02;;
47713;SDS011;33475;46.614;13.888;2022-12-29T07:20:04;17.52;;;9.70;;
47713;SDS011;33475;46.614;13.888;2022-12-29T07:22:30;20.83;;;12.18;;
47713;SDS011;33475;46.614;13.888;2022-12-29T07:24:57;33.10;;;9.25;;
47713;SDS011;33475;46.614;13.888;2022-12-29T07:27:23;137.38;;;12.80;;
47713;SDS011;33475;46.614;13.888;2022-12-29T07:29:49;90.18;;;13.32;;
47713;SDS011;33475;46.614;13.888;2022-12-29T07:32:15;76.07;;;12.00;;
47713;SDS011;33475;46.614;13.888;2022-12-29T07:34:41;103.80;;;10.88;;
47713;SDS011;33475;46.614;13.888;2022-12-29T07:37:10;64.68;;;10.45;;
47713;SDS011;33475;46.614;13.888;2022-12-29T07:39:36;49.55;;;8.32;;
47713;SDS011;33475;46.614;13.888;2022-12-29T07:42:02;16.80;;;7.78;;
47713;SDS011;33475;46.614;13.888;2022-12-29T07:44:28;13.40;;;7.63;;
47713;SDS011;33475;46.614;13.888;2022-12-29T07:46:54;7.65;;;5.72;;
47713;SDS011;33475;46.614;13.888;2022-12-29T07:49:20;8.98;;;6.30;;
47713;SDS011;33475;46.614;13.888;2022-12-29T07:51:46;10.85;;;8.48;;
47713;SDS011;33475;46.614;13.888;2022-12-29T07:54:12;10.25;;;6.97;;
47713;SDS011;33475;46.614;13.888;2022-12-29T07:56:39;8.65;;;7.60;;
47713;SDS011;33475;46.614;13.888;2022-12-29T07:59:05;8.38;;;7.00;;
47713;SDS011;33475;46.614;13.888;2022-12-29T08:01:31;14.43;;;6.68;;
47713;SDS011;33475;46.614;13.888;2022-12-29T08:03:57;18.13;;;13.43;;
47713;SDS011;33475;46.614;13.888;2022-12-29T08:06:24;8.93;;;7.22;;
47713;SDS011;33475;46.614;13.888;2022-12-29T08:08:50;7.20;;;6.03;;
47713;SDS011;33475;46.614;13.888;2022-12-29T08:11:16;10.10;;;7.03;;
47713;SDS011;33475;46.614;13.888;2022-12-29T08:13:42;9.80;;;5.78;;
47713;SDS011;33475;46.614;13.888;2022-12-29T08:16:09;9.30;;;5.53;;
47713;SDS011;33475;46.614;13.888;2022-12-29T08:18:35;9.35;;;5.75;;
47713;SDS011;33475;46.614;13.888;2022-12-29T08:21:02;7.40;;;6.20;;
47713;SDS011;33475;46.614;13.888;2022-12-29T08:23:28;18.27;;;7.70;;
47713;SDS011;33475;46.614;13.888;2022-12-29T08:25:58;35.75;;;12.93;;
47713;SDS011;33475;46.614;13.888;2022-12-29T08:28:25;13.82;;;9.63;;
47713;SDS011;33475;46.614;13.888;2022-12-29T08:30:51;14.85;;;8.43;;
47713;SDS011;33475;46.614;13.888;2022-12-29T08:33:17;12.13;;;6.95;;
47713;SDS011;33475;46.614;13.888;2022-12-29T08:35:44;6.30;;;5.47;;
47713;SDS011;33475;46.614;13.888;2022-12-29T08:38:10;6.13;;;4.88;;
47713;SDS011;33475;46.614;13.888;2022-12-29T08:40:36;9.98;;;6.50;;
47713;SDS011;33475;46.614;13.888;2022-12-29T08:43:03;4.72;;;3.95;;
47713;SDS011;33475;46.614;13.888;2022-12-29T08:45:29;5.18;;;4.45;;
47713;SDS011;33475;46.614;13.888;2022-12-29T08:47:55;7.60;;;4.07;;
47713;SDS011;33475;46.614;13.888;2022-12-29T08:50:21;11.23;;;6.85;;
47713;SDS011;33475;46.614;13.888;2022-12-29T08:52:47;25.55;;;10.40;;
47713;SDS011;33475;46.614;13.888;2022-12-29T08:55:13;6.80;;;4.90;;
47713;SDS011;33475;46.614;13.888;2022-12-29T08:57:40;11.80;;;5.97;;
47713;SDS011;33475;46.614;13.888;2022-12-29T09:00:06;8.57;;;5.10;;
47713;SDS011;33475;46.614;13.888;2022-12-29T09:02:33;6.13;;;4.22;;
47713;SDS011;33475;46.614;13.888;2022-12-29T09:04:59;9.77;;;5.53;;
47713;SDS011;33475;46.614;13.888;2022-12-29T09:07:26;5.35;;;4.75;;
47713;SDS011;33475;46.614;13.888;2022-12-29T09:09:52;5.55;;;4.45;;
47713;SDS011;33475;46.614;13.888;2022-12-29T09:12:18;6.13;;;5.07;;
47713;SDS011;33475;46.614;13.888;2022-12-29T09:14:46;6.22;;;4.80;;
47713;SDS011;33475;46.614;13.888;2022-12-29T09:17:12;8.73;;;5.97;;
47713;SDS011;33475;46.614;13.888;2022-12-29T09:22:23;4.63;;;3.92;;
47713;SDS011;33475;46.614;13.888;2022-12-29T09:24:49;5.13;;;3.95;;
47713;SDS011;33475;46.614;13.888;2022-12-29T09:27:15;5.00;;;4.30;;
47713;SDS011;33475;46.614;13.888;2022-12-29T09:29:41;4.60;;;4.20;;
47713;SDS011;33475;46.614;13.888;2022-12-29T09:32:07;7.25;;;4.18;;
47713;SDS011;33475;46.614;13.888;2022-12-29T09:34:34;5.30;;;4.35;;
47713;SDS011;33475;46.614;13.888;2022-12-29T09:37:00;7.43;;;4.20;;
47713;SDS011;33475;46.614;13.888;2022-12-29T09:39:26;4.25;;;3.63;;
47713;SDS011;33475;46.614;13.888;2022-12-29T09:41:57;4.68;;;3.80;;
47713;SDS011;33475;46.614;13.888;2022-12-29T09:47:26;5.95;;;4.10;;
47713;SDS011;33475;46.614;13.888;2022-12-29T09:52:24;4.88;;;3.63;;
47713;SDS011;33475;46.614;13.888;2022-12-29T09:54:58;4.18;;;3.53;;
47713;SDS011;33475;46.614;13.888;2022-12-29T09:59:56;4.65;;;4.25;;
47713;SDS011;33475;46.614;13.888;2022-12-29T10:02:31;3.88;;;3.58;;
47713;SDS011;33475;46.614;13.888;2022-12-29T10:04:58;5.70;;;3.33;;
47713;SDS011;33475;46.614;13.888;2022-12-29T10:07:27;4.10;;;3.40;;
47713;SDS011;33475;46.614;13.888;2022-12-29T10:12:32;3.33;;;2.85;;
47713;SDS011;33475;46.614;13.888;2022-12-29T10:25:28;2.75;;;2.45;;
47713;SDS011;33475;46.614;13.888;2022-12-29T10:27:57;3.50;;;2.92;;
47713;SDS011;33475;46.614;13.888;2022-12-29T10:30:25;3.97;;;3.58;;
47713;SDS011;33475;46.614;13.888;2022-12-29T10:32:52;4.20;;;3.80;;
47713;SDS011;33475;46.614;13.888;2022-12-29T10:35:21;8.40;;;6.70;;
47713;SDS011;33475;46.614;13.888;2022-12-29T10:40:23;4.50;;;4.10;;
47713;SDS011;33475;46.614;13.888;2022-12-29T10:42:55;8.40;;;4.70;;
47713;SDS011;33475;46.614;13.888;2022-12-29T10:45:23;6.90;;;4.82;;
47713;SDS011;33475;46.614;13.888;2022-12-29T10:48:01;12.73;;;5.88;;
47713;SDS011;33475;46.614;13.888;2022-12-29T10:50:29;5.30;;;4.20;;
47713;SDS011;33475;46.614;13.888;2022-12-29T10:52:58;4.40;;;4.00;;
47713;SDS011;33475;46.614;13.888;2022-12-29T10:55:26;6.97;;;6.28;;
47713;SDS011;33475;46.614;13.888;2022-12-29T10:57:54;5.38;;;4.75;;
47713;SDS011;33475;46.614;13.888;2022-12-29T11:00:22;7.88;;;4.28;;
47713;SDS011;33475;46.614;13.888;2022-12-29T11:02:53;4.68;;;4.05;;
47713;SDS011;33475;46.614;13.888;2022-12-29T11:05:36;6.55;;;3.85;;
47713;SDS011;33475;46.614;13.888;2022-12-29T11:08:04;5.65;;;4.22;;
47713;SDS011;33475;46.614;13.888;2022-12-29T11:10:38;5.35;;;3.85;;
47713;SDS011;33475;46.614;13.888;2022-12-29T11:15:39;4.00;;;3.08;;
47713;SDS011;33475;46.614;13.888;2022-12-29T11:18:07;4.35;;;3.42;;
47713;SDS011;33475;46.614;13.888;2022-12-29T11:20:42;6.03;;;3.45;;
47713;SDS011;33475;46.614;13.888;2022-12-29T11:23:54;3.90;;;3.22;;
47713;SDS011;33475;46.614;13.888;2022-12-29T11:28:41;3.45;;;3.15;;
47713;SDS011;33475;46.614;13.888;2022-12-29T11:31:08;4.93;;;3.45;;
47713;SDS011;33475;46.614;13.888;2022-12-29T11:33:35;3.35;;;3.05;;
47713;SDS011;33475;46.614;13.888;2022-12-29T11:36:05;5.15;;;2.90;;
47713;SDS011;33475;46.614;13.888;2022-12-29T11:38:46;3.45;;;2.85;;
47713;SDS011;33475;46.614;13.888;2022-12-29T11:41:13;3.90;;;2.63;;
47713;SDS011;33475;46.614;13.888;2022-12-29T11:43:44;3.88;;;3.05;;
47713;SDS011;33475;46.614;13.888;2022-12-29T11:46:17;2.78;;;2.50;;
47713;SDS011;33475;46.614;13.888;2022-12-29T11:48:45;4.38;;;2.22;;
47713;SDS011;33475;46.614;13.888;2022-12-29T11:51:12;2.78;;;2.13;;
47713;SDS011;33475;46.614;13.888;2022-12-29T11:53:46;2.63;;;2.15;;
47713;SDS011;33475;46.614;13.888;2022-12-29T11:56:17;2.13;;;1.98;;
47713;SDS011;33475;46.614;13.888;2022-12-29T11:58:45;4.32;;;2.00;;
47713;SDS011;33475;46.614;13.888;2022-12-29T12:01:19;3.42;;;2.15;;
47713;SDS011;33475;46.614;13.888;2022-12-29T12:04:04;3.97;;;1.63;;
47713;SDS011;33475;46.614;13.888;2022-12-29T12:06:32;2.23;;;1.93;;
47713;SDS011;33475;46.614;13.888;2022-12-29T12:09:02;3.83;;;2.00;;
47713;SDS011;33475;46.614;13.888;2022-12-29T12:11:32;2.90;;;2.50;;
47713;SDS011;33475;46.614;13.888;2022-12-29T12:17:21;3.00;;;2.40;;
47713;SDS011;33475;46.614;13.888;2022-12-29T12:19:36;3.50;;;2.85;;
47713;SDS011;33475;46.614;13.888;2022-12-29T12:22:10;5.85;;;2.70;;
47713;SDS011;33475;46.614;13.888;2022-12-29T12:27:17;4.07;;;2.92;;
47713;SDS011;33475;46.614;13.888;2022-12-29T12:32:41;4.10;;;2.90;;
47713;SDS011;33475;46.614;13.888;2022-12-29T12:35:15;5.07;;;3.40;;
47713;SDS011;33475;46.614;13.888;2022-12-29T13:00:46;8.13;;;4.32;;
47713;SDS011;33475;46.614;13.888;2022-12-29T13:03:26;4.80;;;2.90;;
47713;SDS011;33475;46.614;13.888;2022-12-29T13:06:04;4.57;;;3.15;;
47713;SDS011;33475;46.614;13.888;2022-12-29T13:21:45;20.90;;;12.05;;
47713;SDS011;33475;46.614;13.888;2022-12-29T13:24:16;8.32;;;7.50;;
47713;SDS011;33475;46.614;13.888;2022-12-29T13:26:50;7.50;;;5.82;;
47713;SDS011;33475;46.614;13.888;2022-12-29T13:30:03;4.55;;;3.40;;
47713;SDS011;33475;46.614;13.888;2022-12-29T13:32:15;6.00;;;4.32;;
47713;SDS011;33475;46.614;13.888;2022-12-29T13:37:15;8.38;;;4.38;;
47713;SDS011;33475;46.614;13.888;2022-12-29T13:39:45;7.35;;;4.85;;
47713;SDS011;33475;46.614;13.888;2022-12-29T13:42:13;10.23;;;4.53;;
47713;SDS011;33475;46.614;13.888;2022-12-29T13:47:40;12.13;;;7.82;;
47713;SDS011;33475;46.614;13.888;2022-12-29T13:50:15;11.02;;;7.45;;
47713;SDS011;33475;46.614;13.888;2022-12-29T14:00:43;24.02;;;12.55;;
47713;SDS011;33475;46.614;13.888;2022-12-29T14:08:35;22.02;;;12.00;;
47713;SDS011;33475;46.614;13.888;2022-12-29T14:11:05;18.02;;;9.05;;
47713;SDS011;33475;46.614;13.888;2022-12-29T14:13:33;13.68;;;6.95;;
47713;SDS011;33475;46.614;13.888;2022-12-29T14:16:02;15.52;;;6.65;;
47713;SDS011;33475;46.614;13.888;2022-12-29T14:18:30;21.83;;;9.82;;
47713;SDS011;33475;46.614;13.888;2022-12-29T14:23:39;24.90;;;12.00;;
47713;SDS011;33475;46.614;13.888;2022-12-29T14:28:35;20.30;;;11.20;;
47713;SDS011;33475;46.614;13.888;2022-12-29T14:31:03;18.13;;;9.88;;
47713;SDS011;33475;46.614;13.888;2022-12-29T14:33:31;30.75;;;15.13;;
47713;SDS011;33475;46.614;13.888;2022-12-29T14:36:18;24.15;;;13.07;;
47713;SDS011;33475;46.614;13.888;2022-12-29T14:38:44;13.20;;;8.07;;
47713;SDS011;33475;46.614;13.888;2022-12-29T14:41:15;9.38;;;6.57;;
47713;SDS011;33475;46.614;13.888;2022-12-29T14:43:41;9.23;;;5.15;;
47713;SDS011;33475;46.614;13.888;2022-12-29T14:46:17;7.18;;;5.30;;
47713;SDS011;33475;46.614;13.888;2022-12-29T14:48:43;9.25;;;6.28;;
47713;SDS011;33475;46.614;13.888;2022-12-29T14:51:20;7.80;;;5.47;;
47713;SDS011;33475;46.614;13.888;2022-12-29T14:53:50;9.00;;;6.10;;
47713;SDS011;33475;46.614;13.888;2022-12-29T14:56:17;10.50;;;5.57;;
47713;SDS011;33475;46.614;13.888;2022-12-29T14:58:55;6.47;;;5.72;;
47713;SDS011;33475;46.614;13.888;2022-12-29T15:03:48;8.93;;;6.97;;
47713;SDS011;33475;46.614;13.888;2022-12-29T15:06:15;18.08;;;11.15;;
47713;SDS011;33475;46.614;13.888;2022-12-29T15:11:14;27.15;;;12.80;;
47713;SDS011;33475;46.614;13.888;2022-12-29T15:13:42;12.32;;;8.63;;
47713;SDS011;33475;46.614;13.888;2022-12-29T15:18:47;39.83;;;19.58;;
47713;SDS011;33475;46.614;13.888;2022-12-29T15:21:14;14.13;;;10.05;;
47713;SDS011;33475;46.614;13.888;2022-12-29T15:23:42;10.57;;;7.93;;
47713;SDS011;33475;46.614;13.888;2022-12-29T15:26:09;8.40;;;6.45;;
47713;SDS011;33475;46.614;13.888;2022-12-29T15:28:37;8.48;;;6.50;;
47713;SDS011;33475;46.614;13.888;2022-12-29T15:31:04;7.07;;;6.10;;
47713;SDS011;33475;46.614;13.888;2022-12-29T15:33:31;9.90;;;6.45;;
47713;SDS011;33475;46.614;13.888;2022-12-29T15:36:02;10.70;;;7.38;;
47713;SDS011;33475;46.614;13.888;2022-12-29T15:38:29;9.02;;;7.00;;
47713;SDS011;33475;46.614;13.888;2022-12-29T15:41:31;8.52;;;6.70;;
47713;SDS011;33475;46.614;13.888;2022-12-29T15:43:51;6.57;;;5.72;;
47713;SDS011;33475;46.614;13.888;2022-12-29T15:46:19;7.65;;;6.85;;
47713;SDS011;33475;46.614;13.888;2022-12-29T15:48:45;16.25;;;9.57;;
47713;SDS011;33475;46.614;13.888;2022-12-29T15:51:23;18.30;;;12.38;;
47713;SDS011;33475;46.614;13.888;2022-12-29T15:53:51;19.75;;;13.82;;
47713;SDS011;33475;46.614;13.888;2022-12-29T15:56:17;15.77;;;12.63;;
47713;SDS011;33475;46.614;13.888;2022-12-29T15:58:45;15.18;;;10.68;;
47713;SDS011;33475;46.614;13.888;2022-12-29T16:01:46;17.52;;;9.68;;
47713;SDS011;33475;46.614;13.888;2022-12-29T16:04:06;12.63;;;10.10;;
47713;SDS011;33475;46.614;13.888;2022-12-29T16:06:34;10.48;;;8.52;;
47713;SDS011;33475;46.614;13.888;2022-12-29T16:11:34;9.93;;;8.57;;
47713;SDS011;33475;46.614;13.888;2022-12-29T16:14:02;9.55;;;8.32;;
47713;SDS011;33475;46.614;13.888;2022-12-29T16:16:33;15.80;;;10.75;;
47713;SDS011;33475;46.614;13.888;2022-12-29T16:19:06;11.95;;;8.57;;
47713;SDS011;33475;46.614;13.888;2022-12-29T16:21:37;10.82;;;8.20;;
47713;SDS011;33475;46.614;13.888;2022-12-29T16:24:07;23.17;;;14.15;;
47713;SDS011;33475;46.614;13.888;2022-12-29T16:26:35;14.73;;;9.25;;
47713;SDS011;33475;46.614;13.888;2022-12-29T16:29:04;18.58;;;12.88;;
47713;SDS011;33475;46.614;13.888;2022-12-29T16:31:35;18.17;;;12.48;;
47713;SDS011;33475;46.614;13.888;2022-12-29T16:34:12;13.40;;;8.60;;
47713;SDS011;33475;46.614;13.888;2022-12-29T16:36:39;11.02;;;8.90;;
47713;SDS011;33475;46.614;13.888;2022-12-29T16:47:16;14.10;;;10.43;;
47713;SDS011;33475;46.614;13.888;2022-12-29T16:49:33;16.90;;;10.95;;
47713;SDS011;33475;46.614;13.888;2022-12-29T16:51:59;17.80;;;10.25;;
47713;SDS011;33475;46.614;13.888;2022-12-29T16:54:35;15.50;;;9.93;;
47713;SDS011;33475;46.614;13.888;2022-12-29T16:57:02;33.80;;;17.25;;
47713;SDS011;33475;46.614;13.888;2022-12-29T16:59:33;34.22;;;16.73;;
47713;SDS011;33475;46.614;13.888;2022-12-29T17:02:01;39.67;;;18.60;;
47713;SDS011;33475;46.614;13.888;2022-12-29T17:04:31;31.98;;;17.15;;
47713;SDS011;33475;46.614;13.888;2022-12-29T17:06:57;42.95;;;18.42;;
47713;SDS011;33475;46.614;13.888;2022-12-29T17:09:27;27.83;;;13.98;;
47713;SDS011;33475;46.614;13.888;2022-12-29T17:11:54;37.95;;;19.52;;
47713;SDS011;33475;46.614;13.888;2022-12-29T17:16:54;31.88;;;18.25;;